sensor_id;sensor_type;location;lat;lon;timestamp;pressure;altitude;pressure_sealevel;temperature;humidity
15558;BME280;7880;50.110;9.372;2023-07-02T00:00:15;15.857568979874486;;;15.875;100.0
15558;BME280;7880;50.110;9.372;2023-07-02T00:05:27;15.867654200369724;;;15.875;100.0
15558;BME280;7880;50.110;9.372;2023-07-02T00:10:28;15.847483760543401;;;15.875;100.0
15558;BME280;7880;50.110;9.372;2023-07-02T00:15:41;15.817228109535062;;;15.812;100.0
15558;BME280;7880;50.110;9.372;2023-07-02T00:20:38;15.76680204780423;;;15.812;100.0
15558;BME280;7880;50.110;9.372;2023-07-02T00:25:46;15.731503821909428;;;15.812;100.0
15558;BME280;7880;50.110;9.372;2023-07-02T00:30:47;15.655864814441884;;;15.687;100.0
15558;BME280;7880;50.110;9.372;2023-07-02T00:35:52;15.640737020806409;;;15.625;100.0
15558;BME280;7880;50.110;9.372;2023-07-02T00:40:58;15.560055498988367;;;15.625;100.0
15558;BME280;7880;50.110;9.372;2023-07-02T00:46:04;15.610481441393494;;;15.625;100.0
15558;BME280;7880;50.110;9.372;2023-07-02T00:51:20;15.49450181737193;;;15.562;100.0
15558;BME280;7880;50.110;9.372;2023-07-02T00:56:13;15.433990770304808;;;15.5;100.0
15558;BME280;7880;50.110;9.372;2023-07-02T01:01:19;15.358352020406164;;;15.437;100.0
15558;BME280;7880;50.110;9.372;2023-07-02T01:06:26;15.333139118325198;;;15.375;100.0
15558;BME280;7880;50.110;9.372;2023-07-02T01:11:28;15.312968801899114;;;15.375;100.0
15558;BME280;7880;50.110;9.372;2023-07-02T01:16:34;15.292798490129645;;;15.312;100.0
15558;BME280;7880;50.110;9.372;2023-07-02T01:21:37;15.297841067635455;;;15.312;100.0
15558;BME280;7880;50.110;9.372;2023-07-02T01:26:47;15.272628183016787;;;15.312;100.0
15558;BME280;7880;50.110;9.372;2023-07-02T01:31:59;15.176819287822582;;;15.25;100.0
15558;BME280;7880;50.110;9.372;2023-07-02T01:37:05;15.15160643812851;;;15.25;100.0
15558;BME280;7880;50.110;9.372;2023-07-02T01:42:10;15.045712548866868;;;15.125;100.0
15558;BME280;7880;50.110;9.372;2023-07-02T01:47:06;14.975116693996824;;;15.0;100.0
15558;BME280;7880;50.110;9.372;2023-07-02T01:52:10;14.949903902510414;;;15.0;100.0
15558;BME280;7880;50.110;9.372;2023-07-02T01:57:15;14.919648562330986;;;14.937;100.0
15558;BME280;7880;50.110;9.372;2023-07-02T02:02:20;14.980159253167221;;;15.062;100.0
15558;BME280;7880;50.110;9.372;2023-07-02T02:07:26;14.854095361218787;;;15.0;100.0
15558;BME280;7880;50.110;9.372;2023-07-02T02:12:32;14.818797504069517;;;14.937;100.0
15558;BME280;7880;50.110;9.372;2023-07-02T02:17:35;14.778457113361219;;;14.875;100.0
15558;BME280;7880;50.110;9.372;2023-07-02T02:21:24;14.733074196078814;;;14.812;100.0
15558;BME280;7880;50.110;9.372;2023-07-02T02:26:29;14.642308432236314;;;14.75;100.0
15558;BME280;7880;50.110;9.372;2023-07-02T02:31:33;14.43556454438367;;;14.625;100.0
15558;BME280;7880;50.110;9.372;2023-07-02T02:36:38;14.375054230733076;;;14.562;100.0
15558;BME280;7880;50.110;9.372;2023-07-02T02:41:54;14.370011706487276;;;14.562;100.0
15558;BME280;7880;50.110;9.372;2023-07-02T02:46:51;14.198566055297851;;;14.375;100.0
15558;BME280;7880;50.110;9.372;2023-07-02T02:51:54;14.339756567124278;;;14.437;100.0
15558;BME280;7880;50.110;9.372;2023-07-02T02:57:00;14.264118764555315;;;14.375;100.0
15558;BME280;7880;50.110;9.372;2023-07-02T03:02:07;14.28428883883753;;;14.375;100.0
15558;BME280;7880;50.110;9.372;2023-07-02T03:07:08;14.153183439240092;;;14.25;100.0
15558;BME280;7880;50.110;9.372;2023-07-02T03:12:12;14.26916128268931;;;14.312;100.0
15558;BME280;7880;50.110;9.372;2023-07-02T03:17:17;14.163268462993438;;;14.312;100.0
15558;BME280;7880;50.110;9.372;2023-07-02T03:22:21;14.213693599222461;;;14.312;100.0
15558;BME280;7880;50.110;9.372;2023-07-02T03:27:27;14.183438513992588;;;14.312;100.0
15558;BME280;7880;50.110;9.372;2023-07-02T03:32:32;14.087630813219585;;;14.125;100.0
15558;BME280;7880;50.110;9.372;2023-07-02T03:37:34;14.052333265735069;;;14.125;100.0
15558;BME280;7880;50.110;9.372;2023-07-02T03:42:38;13.870803246792638;;;14.0;100.0
15558;BME280;7880;50.110;9.372;2023-07-02T03:47:42;13.840548280306393;;;14.0;100.0
15558;BME280;7880;50.110;9.372;2023-07-02T03:52:47;13.931313211197267;;;14.0;100.0
15558;BME280;7880;50.110;9.372;2023-07-02T03:57:52;13.825420800992287;;;13.937;100.0
15558;BME280;7880;50.110;9.372;2023-07-02T04:02:58;13.68927360503585;;;13.875;100.0
15558;BME280;7880;50.110;9.372;2023-07-02T04:08:05;13.719528519135201;;;13.75;100.0
15558;BME280;7880;50.110;9.372;2023-07-02T04:13:05;13.71448603272438;;;13.687;100.0
15558;BME280;7880;50.110;9.372;2023-07-02T04:18:08;13.598508925602072;;;13.687;100.0
15558;BME280;7880;50.110;9.372;2023-07-02T04:23:12;13.72457100583706;;;13.75;100.0
15558;BME280;7880;50.110;9.372;2023-07-02T04:28:16;13.638848771486664;;;13.687;100.0
15558;BME280;7880;50.110;9.372;2023-07-02T04:33:32;13.729613492829959;;;13.812;100.0
15558;BME280;7880;50.110;9.372;2023-07-02T04:38:23;13.759868420899148;;;13.75;100.0
15558;BME280;7880;50.110;9.372;2023-07-02T04:43:29;13.71448603272438;;;13.687;100.0
15558;BME280;7880;50.110;9.372;2023-07-02T04:48:37;13.769953399250516;;;13.812;100.0
15558;BME280;7880;50.110;9.372;2023-07-02T04:53:55;13.815335816238075;;;13.812;100.0
15558;BME280;7880;50.110;9.372;2023-07-02T04:58:43;14.04224825478741;;;14.0;100.0
15558;BME280;7880;50.110;9.372;2023-07-02T05:03:49;13.845590773993171;;;14.0;100.0
15558;BME280;7880;50.110;9.372;2023-07-02T05:08:54;13.860718256799737;;;13.875;100.0
15558;BME280;7880;50.110;9.372;2023-07-02T05:13:56;13.774995888862758;;;13.812;100.0
15558;BME280;7880;50.110;9.372;2023-07-02T05:19:05;13.820378308469662;;;13.812;100.0
15558;BME280;7880;50.110;9.372;2023-07-02T05:24:12;13.926270712562836;;;13.937;100.0
15558;BME280;7880;50.110;9.372;2023-07-02T05:29:11;13.98173821354867;;;14.0;100.0
15558;BME280;7880;50.110;9.372;2023-07-02T05:34:15;14.133013395225863;;;14.062;100.0
15558;BME280;7880;50.110;9.372;2023-07-02T05:39:36;14.183438513992588;;;14.187;100.0
15558;BME280;7880;50.110;9.372;2023-07-02T05:44:26;14.35992665886879;;;14.25;100.0
15558;BME280;7880;50.110;9.372;2023-07-02T05:49:32;14.43556454438367;;;14.375;100.0
15558;BME280;7880;50.110;9.372;2023-07-02T05:54:39;14.425479489198187;;;14.375;100.0
15558;BME280;7880;50.110;9.372;2023-07-02T05:59:41;14.354884135496103;;;14.312;100.0
15558;BME280;7880;50.110;9.372;2023-07-02T06:04:50;14.375054230733076;;;14.375;100.0
15558;BME280;7880;50.110;9.372;2023-07-02T06:09:50;14.501117431465536;;;14.437;100.0
15558;BME280;7880;50.110;9.372;2023-07-02T06:14:54;14.566670367732877;;;14.562;100.0
15558;BME280;7880;50.110;9.372;2023-07-02T06:19:59;14.601968123018741;;;14.562;100.0
15558;BME280;7880;50.110;9.372;2023-07-02T06:25:03;14.6776062180812;;;14.687;100.0
15558;BME280;7880;50.110;9.372;2023-07-02T06:30:14;15.010414614301407;;;14.812;100.0
15558;BME280;7880;50.110;9.372;2023-07-02T06:35:13;15.040669985912974;;;15.0;100.0
15558;BME280;7880;50.110;9.372;2023-07-02T06:40:20;15.10118076056824;;;15.0;100.0
15558;BME280;7880;50.110;9.372;2023-07-02T06:45:22;15.277670759358443;;;15.25;100.0
15558;BME280;7880;50.110;9.372;2023-07-02T06:50:25;15.358352020406164;;;15.375;100.0
15558;BME280;7880;50.110;9.372;2023-07-02T06:55:29;15.272628183016787;;;15.187;100.0
15558;BME280;7880;50.110;9.372;2023-07-02T07:00:35;15.49450181737193;;;15.437;100.0
15558;BME280;7880;50.110;9.372;2023-07-02T07:05:39;15.62560922979028;;;15.437;100.0
15558;BME280;7880;50.110;9.372;2023-07-02T07:10:46;15.792015075031667;;;15.625;100.0
15558;BME280;7880;50.110;9.372;2023-07-02T07:15:47;15.842441151314414;;;15.687;100.0
15558;BME280;7880;50.110;9.372;2023-07-02T07:20:53;15.721418617130258;;;15.625;100.0
15558;BME280;7880;50.110;9.372;2023-07-02T07:25:43;15.983634319738485;;;15.937;100.0
15558;BME280;7880;50.110;9.372;2023-07-02T07:30:47;15.862611589976586;;;15.875;100.0
15558;BME280;7880;50.110;9.372;2023-07-02T07:35:55;16.069358854746678;;;15.875;100.0
15558;BME280;7880;50.110;9.372;2023-07-02T07:40:57;15.781929863267578;;;15.812;100.0
15558;BME280;7880;50.110;9.372;2023-07-02T07:46:09;15.842441151314414;;;15.812;100.0
15558;BME280;7880;50.110;9.372;2023-07-02T07:51:07;15.817228109535062;;;15.812;100.0
15558;BME280;7880;50.110;9.372;2023-07-02T07:56:11;15.776887257822091;;;15.687;100.0
15558;BME280;7880;50.110;9.372;2023-07-02T08:06:28;16.144998220191336;;;16.0;100.0
15558;BME280;7880;50.110;9.372;2023-07-02T08:11:28;15.923122933902778;;;15.875;100.0
15558;BME280;7880;50.110;9.372;2023-07-02T08:16:33;16.008847409539158;;;16.0;100.0
15558;BME280;7880;50.110;9.372;2023-07-02T08:21:37;15.776887257822091;;;15.875;100.0
15558;BME280;7880;50.110;9.372;2023-07-02T08:26:42;15.827313325373689;;;15.812;100.0
15558;BME280;7880;50.110;9.372;2023-07-02T08:31:50;15.907995093992213;;;15.875;100.0
15558;BME280;7880;50.110;9.372;2023-07-02T08:36:52;16.170211356558138;;;16.0;100.0
15558;BME280;7880;50.110;9.372;2023-07-02T08:41:57;16.29627714753151;;;16.125;100.0
15558;BME280;7880;50.110;9.372;2023-07-02T08:47:05;16.260978707723552;;;16.187;100.0
15558;BME280;7880;50.110;9.372;2023-07-02T08:52:07;16.659347641840576;;;16.312;100.0
15558;BME280;7880;50.110;9.372;2023-07-02T08:57:11;16.941736847162247;;;16.75;100.0
15558;BME280;7880;50.110;9.372;2023-07-02T09:02:17;16.75515816277475;;;16.687;100.0
15558;BME280;7880;50.110;9.372;2023-07-02T09:07:20;17.138401297159724;;;17.0;100.0
15558;BME280;7880;50.110;9.372;2023-07-02T09:12:26;17.067803751357133;;;17.0;100.0
15558;BME280;7880;50.110;9.372;2023-07-02T09:17:37;17.693098284775623;;;17.25;100.0
15558;BME280;7880;50.110;9.372;2023-07-02T09:22:36;17.829251720011236;;;17.625;100.0
15558;BME280;7880;50.110;9.372;2023-07-02T09:27:38;17.289681944536277;;;17.437;100.0
15558;BME280;7880;50.110;9.372;2023-07-02T09:32:41;17.824208996404195;;;17.562;100.0
15558;BME280;7880;50.110;9.372;2023-07-02T09:37:46;17.632585714996093;;;17.562;100.0
15558;BME280;7880;50.110;9.372;2023-07-02T09:42:53;17.4813044739014;;;17.437;100.0
15558;BME280;7880;50.110;9.372;2023-07-02T09:47:57;17.88976442599669;;;17.625;100.0
15558;BME280;7880;50.110;9.372;2023-07-02T09:53:00;17.90489260904142;;;17.812;93.92483205394049
15558;BME280;7880;50.110;9.372;2023-07-02T09:58:04;18.65121955797658;;;18.312;91.61601064733371
15558;BME280;7880;50.110;9.372;2023-07-02T10:03:08;19.00421425444656;;;18.625;91.55760680349704
15558;BME280;7880;50.110;9.372;2023-07-02T10:08:14;18.88823012544308;;;18.687;90.49235194663547
15558;BME280;7880;50.110;9.372;2023-07-02T10:13:26;19.24626858481788;;;18.937;85.47324738206224
15558;BME280;7880;50.110;9.372;2023-07-02T10:18:26;19.14036973277107;;;19.062;83.4397345954299
15558;BME280;7880;50.110;9.372;2023-07-02T10:23:33;18.903358481364556;;;18.812;87.47744802626919
15558;BME280;7880;50.110;9.372;2023-07-02T10:28:31;18.84284507339471;;;18.75;84.76164742877563
15558;BME280;7880;50.110;9.372;2023-07-02T10:33:34;19.33703913158388;;;18.937;84.28436511664894
15558;BME280;7880;50.110;9.372;2023-07-02T10:38:46;19.04455659627565;;;19.0;83.78291725168128
15558;BME280;7880;50.110;9.372;2023-07-02T10:43:50;19.110112941474654;;;19.0;85.45322679515363
15558;BME280;7880;50.110;9.372;2023-07-02T10:48:55;18.822673946717988;;;18.875;87.6499561889251
15558;BME280;7880;50.110;9.372;2023-07-02T10:54:00;19.01934263044968;;;18.937;89.09837467263091
15558;BME280;7880;50.110;9.372;2023-07-02T10:59:03;19.145412532339105;;;18.937;84.73498407555935
15558;BME280;7880;50.110;9.372;2023-07-02T11:04:08;18.923529626667733;;;18.812;89.75995471805251
15558;BME280;7880;50.110;9.372;2023-07-02T11:09:16;19.639608301833505;;;19.187;86.612947402625
15558;BME280;7880;50.110;9.372;2023-07-02T11:14:26;19.71020792564959;;;19.437;84.39852313258618
15558;BME280;7880;50.110;9.372;2023-07-02T11:19:21;20.663308430300095;;;19.812;83.59655126669554
15558;BME280;7880;50.110;9.372;2023-07-02T11:24:27;20.113635441759833;;;20.125;82.03814615350538
15558;BME280;7880;50.110;9.372;2023-07-02T11:29:37;19.740464924747357;;;19.812;81.20749790377636
15558;BME280;7880;50.110;9.372;2023-07-02T11:34:39;19.6496939588862;;;19.625;82.87078572469888
15558;BME280;7880;50.110;9.372;2023-07-02T11:39:43;19.367296001460637;;;19.375;84.23401744533415
15558;BME280;7880;50.110;9.372;2023-07-02T11:44:55;19.39755288181477;;;19.312;86.53815768278417
15558;BME280;7880;50.110;9.372;2023-07-02T11:49:56;19.12524133581319;;;19.125;88.10090267910641
15558;BME280;7880;50.110;9.372;2023-07-02T11:54:57;18.903358481364556;;;19.0;86.43030349669064
15558;BME280;7880;50.110;9.372;2023-07-02T12:00:07;18.963871931243922;;;18.875;85.2075856269236
15558;BME280;7880;50.110;9.372;2023-07-02T12:05:12;19.634565473743713;;;19.375;81.91002488648027
15558;BME280;7880;50.110;9.372;2023-07-02T12:10:21;19.881664392404492;;;19.75;76.01450258613161
15558;BME280;7880;50.110;9.372;2023-07-02T12:15:23;19.891750077396864;;;19.562;79.61814749091278
15558;BME280;7880;50.110;9.372;2023-07-02T12:20:22;20.965882193134167;;;20.375;78.1211584294554
15558;BME280;7880;50.110;9.372;2023-07-02T12:25:33;20.436378795752535;;;20.312;77.13783388368482
15558;BME280;7880;50.110;9.372;2023-07-02T12:29:55;20.340564238117075;;;20.187;78.90828601902197
15558;BME280;7880;50.110;9.372;2023-07-02T12:35:05;20.28509270013892;;;20.062;79.67668008168081
15558;BME280;7880;50.110;9.372;2023-07-02T12:40:06;20.43133592167869;;;20.375;73.47908525489481
15558;BME280;7880;50.110;9.372;2023-07-02T12:45:13;21.505474670469994;;;21.0;70.95788497122862
15558;BME280;7880;50.110;9.372;2023-07-02T12:50:12;21.19785612085834;;;21.062;68.50052531711164
15558;BME280;7880;50.110;9.372;2023-07-02T12:55:19;21.25837115980685;;;21.0;71.00435173049785
15558;BME280;7880;50.110;9.372;2023-07-02T13:00:25;20.663308430300095;;;20.5;69.83347949994116
15558;BME280;7880;50.110;9.372;2023-07-02T13:05:29;20.48176467551384;;;20.625;70.30541412992615
15558;BME280;7880;50.110;9.372;2023-07-02T13:10:33;20.128764009848236;;;20.125;70.65108055991732
15558;BME280;7880;50.110;9.372;2023-07-02T13:15:36;20.36073571520392;;;20.187;70.66286427158894
15558;BME280;7880;50.110;9.372;2023-07-02T13:20:41;20.264921240514376;;;20.187;70.56960983001812
15558;BME280;7880;50.110;9.372;2023-07-02T13:25:49;20.562450742186048;;;20.312;69.4219275356319
15558;BME280;7880;50.110;9.372;2023-07-02T13:30:51;20.380907196947373;;;20.187;70.1956797584581
15558;BME280;7880;50.110;9.372;2023-07-02T13:35:58;20.209449750557543;;;20.187;68.69647646322099
15558;BME280;7880;50.110;9.372;2023-07-02T13:41:01;20.79442359888926;;;20.562;67.56626348865794
15558;BME280;7880;50.110;9.372;2023-07-02T13:46:07;20.71878020838485;;;20.437;69.2874249735301
15558;BME280;7880;50.110;9.372;2023-07-02T13:51:10;20.69860864864313;;;20.562;68.58486277232298
15558;BME280;7880;50.110;9.372;2023-07-02T13:56:15;20.678437093558024;;;20.625;68.20049553337631
15558;BME280;7880;50.110;9.372;2023-07-02T14:01:25;20.814595180749894;;;20.687;66.1479087917564
15558;BME280;7880;50.110;9.372;2023-07-02T14:06:24;20.895281554758547;;;20.75;65.90462042865576
15558;BME280;7880;50.110;9.372;2023-07-02T14:11:29;20.64817976966151;;;20.5;64.83093400267427
15558;BME280;7880;50.110;9.372;2023-07-02T14:16:35;21.096997815743087;;;20.687;65.32833971698645
15558;BME280;7880;50.110;9.372;2023-07-02T14:21:46;20.970925098058068;;;20.75;61.98017744677572
15558;BME280;7880;50.110;9.372;2023-07-02T14:26:48;20.89023865420022;;;20.625;63.8136365592676
15558;BME280;7880;50.110;9.372;2023-07-02T14:31:48;20.986053814576007;;;20.75;61.5915968560137
15558;BME280;7880;50.110;9.372;2023-07-02T14:36:54;21.0667403469095;;;20.812;61.31999458158515
15558;BME280;7880;50.110;9.372;2023-07-02T14:42:06;20.950753480108688;;;20.687;60.75133613773276
15558;BME280;7880;50.110;9.372;2023-07-02T14:47:11;20.68347998189274;;;20.562;60.364516274292214
15558;BME280;7880;50.110;9.372;2023-07-02T14:52:13;20.53219345845282;;;20.5;61.34042278022287
15558;BME280;7880;50.110;9.372;2023-07-02T14:57:10;20.436378795752535;;;20.375;60.78426087067349
15558;BME280;7880;50.110;9.372;2023-07-02T15:02:20;21.192813202837716;;;20.75;59.90307926173502
15558;BME280;7880;50.110;9.372;2023-07-02T15:07:18;20.89023865420022;;;20.75;60.22352485123857
15558;BME280;7880;50.110;9.372;2023-07-02T15:12:22;21.09195490354323;;;20.687;60.558372783724245
15558;BME280;7880;50.110;9.372;2023-07-02T15:17:27;21.9895978598448;;;21.375;59.063604694906644
15558;BME280;7880;50.110;9.372;2023-07-02T15:22:33;20.87006705487729;;;20.875;59.18915130143012
15558;BME280;7880;50.110;9.372;2023-07-02T15:27:36;20.950753480108688;;;20.75;59.05230457646439
15558;BME280;7880;50.110;9.372;2023-07-02T15:32:40;20.59775091978372;;;20.562;59.61948073397838
15558;BME280;7880;50.110;9.372;2023-07-02T15:37:44;20.970925098058068;;;20.625;60.151831224285
15558;BME280;7880;50.110;9.372;2023-07-02T15:42:51;20.940667672880227;;;20.812;58.19117983692239
15558;BME280;7880;50.110;9.372;2023-07-02T15:47:53;20.75912334183813;;;20.625;60.108764574811936
15558;BME280;7880;50.110;9.372;2023-07-02T15:52:58;21.086911991634405;;;20.75;59.08585599784279
15558;BME280;7880;50.110;9.372;2023-07-02T15:58:03;21.142384038638557;;;20.937;58.5740743422258
15558;BME280;7880;50.110;9.372;2023-07-02T16:03:09;21.21298487666645;;;20.937;60.034012671851755
15558;BME280;7880;50.110;9.372;2023-07-02T16:08:21;20.859981256962055;;;20.625;60.90891507190258
15558;BME280;7880;50.110;9.372;2023-07-02T16:13:30;21.313843315659323;;;20.937;58.9287365255479
15558;BME280;7880;50.110;9.372;2023-07-02T16:18:24;21.409658940532246;;;21.0;58.87907365751695
15558;BME280;7880;50.110;9.372;2023-07-02T16:23:30;21.641634046379476;;;21.25;58.651438220999665
15558;BME280;7880;50.110;9.372;2023-07-02T16:28:36;21.2331565551518;;;21.062;59.038661732251995
15558;BME280;7880;50.110;9.372;2023-07-02T16:33:38;21.344100870058174;;;21.125;58.59427489232486
15558;BME280;7880;50.110;9.372;2023-07-02T16:38:44;21.540775229036807;;;21.25;58.3594766757887
15558;BME280;7880;50.110;9.372;2023-07-02T16:43:47;21.031439979845892;;;21.0;59.337624826687964
15558;BME280;7880;50.110;9.372;2023-07-02T16:49:08;21.21298487666645;;;21.0;57.93817506461081
15558;BME280;7880;50.110;9.372;2023-07-02T16:54:17;21.202899039170006;;;21.0;58.0893981902008
15558;BME280;7880;50.110;9.372;2023-07-02T16:59:22;21.394530150672654;;;21.125;57.93008044543743
15558;BME280;7880;50.110;9.372;2023-07-02T17:04:19;21.323929165961452;;;21.125;57.70473748112732
15558;BME280;7880;50.110;9.372;2023-07-02T17:09:27;20.7893807041517;;;20.75;58.3574313905108
15558;BME280;7880;50.110;9.372;2023-07-02T17:14:33;21.444959460390965;;;21.125;58.138302656945804
15558;BME280;7880;50.110;9.372;2023-07-02T17:19:35;20.769209128111832;;;20.75;58.43225615245391
15558;BME280;7880;50.110;9.372;2023-07-02T17:24:43;20.496893307339633;;;20.437;59.31719447982411
15558;BME280;7880;50.110;9.372;2023-07-02T17:29:48;20.84485256227199;;;20.625;59.923727184170794
15558;BME280;7880;50.110;9.372;2023-07-02T17:34:07;20.743994664610362;;;20.562;60.07555805570722
15558;BME280;7880;50.110;9.372;2023-07-02T17:39:08;20.74903755672858;;;20.625;59.29694180831796
15558;BME280;7880;50.110;9.372;2023-07-02T17:44:18;20.678437093558024;;;20.5;58.676898397941564
15558;BME280;7880;50.110;9.372;2023-07-02T17:49:17;20.60783668743097;;;20.5;58.3706836709607
15558;BME280;7880;50.110;9.372;2023-07-02T17:54:21;20.587665153300623;;;20.437;59.375664419616825
15558;BME280;7880;50.110;9.372;2023-07-02T17:59:34;20.401078683347443;;;20.312;59.47470146540289
15558;BME280;7880;50.110;9.372;2023-07-02T18:04:33;20.2296211973764;;;20.187;60.84375695169333
15558;BME280;7880;50.110;9.372;2023-07-02T18:09:35;20.032949789526175;;;20.0;62.053298826068904
15558;BME280;7880;50.110;9.372;2023-07-02T18:14:41;19.922007139358904;;;19.875;62.33852746099049
15558;BME280;7880;50.110;9.372;2023-07-02T18:19:46;19.861493025912203;;;19.812;62.66956137470603
15558;BME280;7880;50.110;9.372;2023-07-02T18:24:54;19.93209282900789;;;19.812;63.36929530231738
15558;BME280;7880;50.110;9.372;2023-07-02T18:29:56;19.871578708576273;;;19.812;63.851058022313616
15558;BME280;7880;50.110;9.372;2023-07-02T18:35:00;19.644651130214335;;;19.687;64.0963182045044
15558;BME280;7880;50.110;9.372;2023-07-02T18:40:07;19.57909438396455;;;19.562;64.24325501699278
15558;BME280;7880;50.110;9.372;2023-07-02T18:45:09;19.50345204556361;;;19.562;66.43023204678583
15558;BME280;7880;50.110;9.372;2023-07-02T18:50:15;19.362253189086914;;;19.437;65.32851989995028
15558;BME280;7880;50.110;9.372;2023-07-02T18:55:21;19.35721037700423;;;19.375;64.78449944606953
15558;BME280;7880;50.110;9.372;2023-07-02T19:00:23;19.3067822721845;;;19.312;66.92855629918819
15558;BME280;7880;50.110;9.372;2023-07-02T19:05:26;19.17566933585913;;;19.187;66.52188195321801
15558;BME280;7880;50.110;9.372;2023-07-02T19:10:30;19.21601175685064;;;19.187;65.76059062495894
15558;BME280;7880;50.110;9.372;2023-07-02T19:15:35;19.105070143943884;;;19.125;66.82379115573175
15558;BME280;7880;50.110;9.372;2023-07-02T19:20:44;19.04455659627565;;;19.062;65.99707679111187
15558;BME280;7880;50.110;9.372;2023-07-02T19:25:45;19.009257046156563;;;19.062;66.86047219465014
15558;BME280;7880;50.110;9.372;2023-07-02T19:30:50;18.979000300262122;;;19.0;67.94956506051008
15558;BME280;7880;50.110;9.372;2023-07-02T19:35:53;18.88823012544308;;;18.937;67.09968601930184
15558;BME280;7880;50.110;9.372;2023-07-02T19:40:58;18.767203372367657;;;18.812;67.87593593808982
15558;BME280;7880;50.110;9.372;2023-07-02T19:46:03;18.686518963449636;;;18.687;67.44610250530562
15558;BME280;7880;50.110;9.372;2023-07-02T19:51:06;18.671390645072098;;;18.687;67.30005795652164
15558;BME280;7880;50.110;9.372;2023-07-02T19:56:23;18.610877397755395;;;18.687;69.04632176715204
15558;BME280;7880;50.110;9.372;2023-07-02T20:01:16;18.58062078981311;;;18.625;68.28727972224905
15558;BME280;7880;50.110;9.372;2023-07-02T20:06:19;18.590706324629718;;;18.625;68.50272296517944
15558;BME280;7880;50.110;9.372;2023-07-02T20:11:25;18.600791860610478;;;18.625;69.23346408874733
15558;BME280;7880;50.110;9.372;2023-07-02T20:16:29;18.600791860610478;;;18.625;68.48195570771084
15558;BME280;7880;50.110;9.372;2023-07-02T20:21:34;18.45455170283094;;;18.5;68.67564155145128
15558;BME280;7880;50.110;9.372;2023-07-02T20:26:38;18.37891033795313;;;18.437;70.0489583787212
15558;BME280;7880;50.110;9.372;2023-07-02T20:31:44;18.39908136218437;;;18.437;69.72325163814743
15558;BME280;7880;50.110;9.372;2023-07-02T20:36:49;18.42933790726238;;;18.375;71.1628201376125
15558;BME280;7880;50.110;9.372;2023-07-02T20:41:54;18.25788429035456;;;18.375;71.85185518014828
15558;BME280;7880;50.110;9.372;2023-07-02T20:46:56;18.13685841039405;;;18.25;72.27100973801461
15558;BME280;7880;50.110;9.372;2023-07-02T20:52:02;17.90993533730507;;;18.062;75.64053389045701
15558;BME280;7880;50.110;9.372;2023-07-02T20:57:06;17.985576296184444;;;18.0;74.44320643893073
15558;BME280;7880;50.110;9.372;2023-07-02T21:02:13;17.985576296184444;;;18.0;73.8009653830274
15558;BME280;7880;50.110;9.372;2023-07-02T21:07:17;17.879678972088733;;;18.0;74.3219765510948
15558;BME280;7880;50.110;9.372;2023-07-02T21:12:22;17.824208996404195;;;17.875;74.49922690463785
15558;BME280;7880;50.110;9.372;2023-07-02T21:17:38;17.95531990477466;;;17.937;74.58514905629595
15558;BME280;7880;50.110;9.372;2023-07-02T21:22:42;17.894807153387227;;;17.937;75.94942251649009
15558;BME280;7880;50.110;9.372;2023-07-02T21:27:50;17.894807153387227;;;17.937;75.7141030151214
15558;BME280;7880;50.110;9.372;2023-07-02T21:32:53;17.88472169889719;;;17.875;76.50467423432102
15558;BME280;7880;50.110;9.372;2023-07-02T21:38:05;17.869593519344924;;;17.875;76.80274270384632
15558;BME280;7880;50.110;9.372;2023-07-02T21:43:01;17.90993533730507;;;17.875;78.02518552093781
15558;BME280;7880;50.110;9.372;2023-07-02T21:48:06;17.78386721802526;;;17.812;80.951140176786
15558;BME280;7880;50.110;9.372;2023-07-02T21:53:10;17.68805556902662;;;17.75;79.87937215242435
15558;BME280;7880;50.110;9.372;2023-07-02T21:58:18;17.642671140382298;;;17.625;79.31440354702856
15558;BME280;7880;50.110;9.372;2023-07-02T22:03:20;17.61745757909957;;;17.562;80.78531268981142
15558;BME280;7880;50.110;9.372;2023-07-02T22:08:24;17.657799280644394;;;17.625;80.80528751847883